Time;durP1;ratioP1;P1;durP2;ratioP2;P2;SDS_P1;SDS_P2;PMS_P1;PMS_P2;Temp;Humidity;BMP_temperature;BMP_pressure;BME280_temperature;BME280_humidity;BME280_pressure;Samples;Min_cycle;Max_cycle;Signal;HPM_P1;HPM_P2
2021/09/13 00:00:01;;;;;;;3.45;3.15;;;;;;;16.22;65.20;97414.34;4932080;29;20122;-78
2021/09/13 00:02:29;;;;;;;3.28;2.97;;;;;;;16.27;64.43;97413.53;4899298;29;20024;-78
2021/09/13 00:04:54;;;;;;;3.10;2.78;;;;;;;16.25;64.37;97418.28;4915034;29;20067;-78
2021/09/13 00:07:20;;;;;;;3.50;3.20;;;;;;;16.22;64.99;97414.34;4914915;29;20429;-78
2021/09/13 00:09:45;;;;;;;3.63;3.22;;;;;;;16.25;64.67;97416.44;4930381;29;20090;-78
2021/09/13 00:12:10;;;;;;;3.25;2.90;;;;;;;16.26;64.64;97420.66;4931732;29;20112;-78
2021/09/13 00:14:36;;;;;;;3.42;3.13;;;;;;;16.12;64.65;97411.81;4899104;29;20039;-78
2021/09/13 00:17:01;;;;;;;4.70;4.05;;;;;;;16.12;64.84;97408.41;4932027;29;20102;-78
2021/09/13 00:19:27;;;;;;;4.30;3.60;;;;;;;16.09;64.81;97402.66;4899336;29;20032;-78
2021/09/13 00:21:52;;;;;;;3.47;3.17;;;;;;;16.06;65.01;97410.28;4888620;29;20490;-78
2021/09/13 00:24:18;;;;;;;4.90;3.42;;;;;;;16.06;64.86;97405.03;4899074;29;20032;-78
2021/09/13 00:26:43;;;;;;;4.13;3.50;;;;;;;16.01;64.91;97395.34;4883553;29;20028;-77
2021/09/13 00:29:10;;;;;;;3.95;3.40;;;;;;;15.99;65.28;97407.16;4917939;29;20110;-78
2021/09/13 00:31:37;;;;;;;5.97;4.07;;;;;;;15.95;65.14;97399.06;4918550;29;20058;-78
2021/09/13 00:34:03;;;;;;;4.07;3.67;;;;;;;15.96;65.09;97398.00;4899994;29;20256;-78
2021/09/13 00:36:28;;;;;;;3.60;3.30;;;;;;;15.95;64.90;97398.28;4918666;29;20118;-78
2021/09/13 00:38:54;;;;;;;3.78;3.40;;;;;;;15.93;65.23;97393.28;4924555;29;20039;-78
2021/09/13 00:41:20;;;;;;;5.30;3.85;;;;;;;15.92;65.17;97394.38;4933579;29;20107;-78
2021/09/13 00:43:45;;;;;;;3.53;3.22;;;;;;;15.95;65.01;97387.78;4933634;29;20521;-78
2021/09/13 00:46:10;;;;;;;4.30;3.13;;;;;;;15.96;64.55;97392.75;4918453;29;20503;-78
2021/09/13 00:48:36;;;;;;;3.78;3.15;;;;;;;15.93;64.89;97401.16;4949975;29;20391;-78
2021/09/13 00:51:04;;;;;;;3.60;2.90;;;;;;;15.80;65.24;97389.47;4917384;29;20035;-78
2021/09/13 00:53:31;;;;;;;4.18;3.78;;;;;;;15.88;65.35;97382.81;4934087;29;20032;-78
2021/09/13 00:55:57;;;;;;;3.85;3.13;;;;;;;15.89;65.51;97385.19;4886679;29;20253;-78
2021/09/13 00:58:25;;;;;;;5.65;3.13;;;;;;;15.78;65.35;97391.56;4918072;29;20036;-78
2021/09/13 01:00:53;;;;;;;3.53;2.67;;;;;;;15.86;65.28;97383.09;4933567;29;20024;-78
2021/09/13 01:03:18;;;;;;;3.38;3.08;;;;;;;15.82;65.21;97379.47;4914865;23;20177;-81
2021/09/13 01:05:43;;;;;;;3.85;3.17;;;;;;;15.79;65.07;97374.75;4936021;29;20110;-82
2021/09/13 01:08:09;;;;;;;4.13;3.40;;;;;;;15.77;65.33;97376.09;4935890;29;20042;-82
2021/09/13 01:10:34;;;;;;;6.50;3.50;;;;;;;15.73;65.11;97381.06;4920282;29;20028;-82
2021/09/13 01:12:59;;;;;;;3.70;3.10;;;;;;;15.73;64.94;97378.44;4919785;29;20046;-82
2021/09/13 01:15:25;;;;;;;3.60;3.30;;;;;;;15.69;64.86;97377.41;4936285;29;20039;-82
2021/09/13 01:17:50;;;;;;;3.83;3.10;;;;;;;15.65;65.22;97379.03;4919892;29;20043;-82
2021/09/13 01:20:16;;;;;;;4.28;3.78;;;;;;;15.64;65.18;97380.06;4935976;29;20035;-82
2021/09/13 01:22:44;;;;;;;7.05;3.42;;;;;;;15.50;65.27;97377.25;4920070;29;20133;-82
2021/09/13 01:25:10;;;;;;;3.95;2.88;;;;;;;15.59;65.25;97369.59;4951807;29;20078;-82
2021/09/13 01:27:35;;;;;;;3.40;3.13;;;;;;;15.54;65.32;97373.03;4935610;29;20039;-82
2021/09/13 01:30:00;;;;;;;4.25;3.25;;;;;;;15.49;65.42;97375.69;4919954;29;20482;-82
2021/09/13 01:32:26;;;;;;;3.83;3.40;;;;;;;15.44;65.88;97370.47;4951211;29;20062;-82
2021/09/13 01:34:52;;;;;;;3.83;3.13;;;;;;;15.44;65.52;97375.69;4920082;29;20134;-82
2021/09/13 01:37:17;;;;;;;3.33;3.03;;;;;;;15.43;65.68;97368.91;4951640;29;20037;-82
2021/09/13 01:39:43;;;;;;;3.75;3.35;;;;;;;15.43;65.58;97371.53;4919539;29;20031;-82
2021/09/13 01:42:08;;;;;;;3.38;3.08;;;;;;;15.46;65.55;97371.75;4935041;29;20467;-82
2021/09/13 01:44:34;;;;;;;3.88;3.47;;;;;;;15.43;65.61;97372.31;4919922;29;20439;-82
2021/09/13 01:46:59;;;;;;;3.92;3.22;;;;;;;15.39;65.88;97371.28;4919600;29;20039;-82
2021/09/13 01:49:24;;;;;;;3.33;3.03;;;;;;;15.33;65.74;97367.09;4919783;29;20032;-82
2021/09/13 01:51:50;;;;;;;3.25;2.95;;;;;;;15.33;65.61;97360.00;4934658;29;20094;-81
2021/09/13 01:54:15;;;;;;;3.60;3.05;;;;;;;15.35;65.57;97370.25;4919544;29;20070;-82
2021/09/13 01:56:41;;;;;;;3.67;2.90;;;;;;;15.36;65.30;97364.72;4919793;29;20501;-81
2021/09/13 01:59:06;;;;;;;3.60;3.20;;;;;;;15.35;65.32;97360.56;4935102;29;20058;-82
2021/09/13 02:01:31;;;;;;;3.05;2.75;;;;;;;15.29;65.16;97355.59;4935178;29;20478;-82
2021/09/13 02:03:57;;;;;;;3.75;3.22;;;;;;;15.28;65.40;97360.03;4915262;29;20036;-82
2021/09/13 02:06:22;;;;;;;4.07;3.20;;;;;;;15.20;65.61;97357.19;4916267;29;20051;-82
2021/09/13 02:08:48;;;;;;;3.42;2.90;;;;;;;15.15;66.01;97356.19;4947760;29;20362;-82
2021/09/13 02:11:13;;;;;;;3.05;2.75;;;;;;;15.17;65.86;97351.44;4947836;29;20084;-82
2021/09/13 02:13:42;;;;;;;3.47;3.17;;;;;;;15.16;65.95;97341.22;4915580;29;20035;-82
2021/09/13 02:16:08;;;;;;;3.35;2.78;;;;;;;15.16;66.03;97349.09;4931193;29;20543;-82
2021/09/13 02:18:34;;;;;;;3.15;2.38;;;;;;;15.18;65.68;97349.59;4931578;29;20533;-82
2021/09/13 02:21:00;;;;;;;3.28;2.97;;;;;;;15.16;65.96;97352.50;4947277;29;20115;-82
2021/09/13 02:23:25;;;;;;;4.05;3.17;;;;;;;15.18;65.72;97354.84;4931590;29;20036;-82
2021/09/13 02:25:51;;;;;;;3.25;2.95;;;;;;;15.16;65.97;97347.25;4931639;29;20031;-82
2021/09/13 02:28:16;;;;;;;3.13;2.83;;;;;;;15.20;65.76;97355.38;4931615;29;20406;-81
2021/09/13 02:30:42;;;;;;;3.95;2.83;;;;;;;15.22;65.51;97355.13;4931356;29;20567;-81
2021/09/13 02:33:08;;;;;;;4.25;3.03;;;;;;;15.15;65.19;97353.56;4914945;29;20483;-81
2021/09/13 02:35:34;;;;;;;3.22;2.80;;;;;;;15.19;65.55;97360.88;4931152;29;20035;-81
2021/09/13 02:38:02;;;;;;;6.68;3.30;;;;;;;15.05;65.53;97356.22;4931213;29;20118;-81
2021/09/13 02:40:29;;;;;;;4.60;3.58;;;;;;;15.14;65.92;97361.69;4947052;29;20042;-81
2021/09/13 02:42:55;;;;;;;3.92;3.05;;;;;;;15.15;65.99;97358.03;4930902;29;20039;-81
2021/09/13 02:45:20;;;;;;;3.97;3.60;;;;;;;15.13;66.31;97363.53;4931475;29;20036;-81
2021/09/13 02:47:46;;;;;;;4.30;3.10;;;;;;;15.21;65.88;97369.25;4915253;29;20036;-81
2021/09/13 02:50:11;;;;;;;2.88;2.60;;;;;;;15.21;65.76;97356.16;4914238;29;20042;-81
2021/09/13 02:52:37;;;;;;;3.92;3.17;;;;;;;15.23;65.72;97364.53;4946623;29;20082;-81
2021/09/13 02:55:03;;;;;;;4.72;3.10;;;;;;;15.19;65.51;97366.13;4930794;29;20046;-81
2021/09/13 02:57:29;;;;;;;3.95;3.50;;;;;;;15.14;65.76;97359.06;4947060;29;20499;-81
2021/09/13 02:59:54;;;;;;;3.75;2.88;;;;;;;15.10;65.87;97364.06;4931104;29;20030;-81
2021/09/13 03:02:20;;;;;;;4.28;3.00;;;;;;;15.05;65.77;97358.84;4929979;29;20039;-81
2021/09/13 03:04:45;;;;;;;3.20;2.90;;;;;;;15.06;65.35;97363.03;4914976;29;20567;-81
2021/09/13 03:07:12;;;;;;;5.15;3.22;;;;;;;15.01;65.20;97364.88;4930671;29;20407;-81
2021/09/13 03:09:38;;;;;;;3.28;2.97;;;;;;;14.91;65.62;97363.88;4930562;29;20035;-81
2021/09/13 03:12:04;;;;;;;3.38;3.05;;;;;;;14.85;65.68;97362.31;4945884;29;20043;-81
2021/09/13 03:14:30;;;;;;;4.50;3.10;;;;;;;14.88;65.45;97366.25;4946639;29;20027;-81
2021/09/13 03:16:56;;;;;;;4.07;3.35;;;;;;;14.92;65.56;97362.81;4930777;29;20479;-81
2021/09/13 03:19:21;;;;;;;4.78;3.40;;;;;;;14.87;65.61;97365.44;4946433;29;20035;-81
2021/09/13 03:21:47;;;;;;;3.08;2.78;;;;;;;14.88;65.48;97363.63;4914326;29;20034;-81
2021/09/13 03:24:12;;;;;;;3.25;2.95;;;;;;;14.83;65.40;97359.19;4930469;29;20175;-81
2021/09/13 03:26:38;;;;;;;4.35;3.00;;;;;;;14.79;65.75;97361.53;4930533;29;20019;-81
2021/09/13 03:29:03;;;;;;;2.67;2.47;;;;;;;14.79;65.64;97361.53;4930232;29;20069;-81
2021/09/13 03:31:29;;;;;;;3.50;2.83;;;;;;;14.76;65.75;97364.69;4946300;29;20051;-81
2021/09/13 03:33:54;;;;;;;3.65;2.83;;;;;;;14.72;65.78;97363.66;4946176;29;20032;-81
2021/09/13 03:36:20;;;;;;;3.35;3.00;;;;;;;14.67;66.17;97360.25;4930307;29;20106;-81
2021/09/13 03:38:45;;;;;;;4.03;2.83;;;;;;;14.68;65.79;97367.06;4930491;29;20031;-81
2021/09/13 03:41:11;;;;;;;3.28;2.97;;;;;;;14.61;66.33;97368.13;4946274;29;20028;-81
2021/09/13 03:43:36;;;;;;;4.03;2.80;;;;;;;14.60;66.59;97357.94;4946281;29;20027;-81
2021/09/13 03:46:02;;;;;;;3.22;2.92;;;;;;;14.58;66.81;97362.59;4930349;29;20106;-81
2021/09/13 03:48:27;;;;;;;3.50;2.60;;;;;;;14.60;66.63;97357.94;4930338;29;20114;-81
2021/09/13 03:50:53;;;;;;;5.07;3.20;;;;;;;14.57;66.39;97361.81;4930111;29;20039;-81
2021/09/13 03:53:18;;;;;;;4.18;3.78;;;;;;;14.62;66.18;97368.94;4929935;29;20487;-81
2021/09/13 03:55:43;;;;;;;3.50;3.05;;;;;;;14.64;66.02;97366.06;4930125;29;20031;-81
2021/09/13 03:58:09;;;;;;;3.58;3.15;;;;;;;14.66;66.94;97364.72;4946092;29;20078;-81
2021/09/13 04:00:35;;;;;;;3.20;2.90;;;;;;;14.68;66.16;97364.47;4929975;29;20039;-81
2021/09/13 04:03:03;;;;;;;4.07;3.03;;;;;;;14.68;66.08;97367.84;4916853;29;20039;-81
2021/09/13 04:05:28;;;;;;;3.72;3.20;;;;;;;14.73;66.27;97362.59;4933712;29;20316;-81
2021/09/13 04:10:28;;;;;;;5.13;3.65;;;;;;;14.74;66.11;97361.56;4933578;29;20055;-81
2021/09/13 04:12:54;;;;;;;4.45;2.80;;;;;;;14.70;66.07;97360.53;4949012;29;20027;-81
2021/09/13 04:15:19;;;;;;;2.90;2.70;;;;;;;14.70;66.04;97355.28;4949642;29;20046;-81
2021/09/13 04:17:45;;;;;;;3.28;2.95;;;;;;;14.71;65.97;97356.06;4918392;29;20032;-81
2021/09/13 04:20:10;;;;;;;4.63;3.40;;;;;;;14.69;66.45;97355.56;4933926;29;20035;-81
2021/09/13 04:22:36;;;;;;;3.20;2.90;;;;;;;14.67;66.44;97347.97;4933209;29;20427;-81
2021/09/13 04:25:01;;;;;;;5.50;3.38;;;;;;;14.68;66.52;97344.25;4933690;29;20483;-81
2021/09/13 04:27:27;;;;;;;4.95;4.03;;;;;;;14.72;66.62;97344.50;4933521;29;20115;-81
2021/09/13 04:29:53;;;;;;;3.85;3.55;;;;;;;14.79;66.69;97347.66;4933614;29;20032;-81
2021/09/13 04:32:18;;;;;;;4.95;3.80;;;;;;;14.83;67.09;97340.06;4948844;29;20110;-81
2021/09/13 04:34:44;;;;;;;4.50;4.03;;;;;;;14.86;66.85;97340.28;4933926;29;20051;-81
2021/09/13 04:37:09;;;;;;;4.22;3.67;;;;;;;14.77;66.70;97326.97;4933524;29;20491;-81
2021/09/13 04:39:34;;;;;;;4.72;3.50;;;;;;;14.72;65.91;97337.47;4949384;29;20035;-81
2021/09/13 04:42:00;;;;;;;3.50;3.20;;;;;;;14.65;65.92;97329.09;4949006;29;20023;-81
2021/09/13 04:44:25;;;;;;;4.07;3.28;;;;;;;14.58;65.85;97329.38;4949114;29;20039;-81
2021/09/13 04:46:51;;;;;;;4.53;3.40;;;;;;;14.49;65.94;97333.53;4933599;29;20403;-81
2021/09/13 04:49:16;;;;;;;4.30;3.90;;;;;;;14.48;66.27;97333.81;4934450;29;20066;-81
2021/09/13 04:51:41;;;;;;;4.18;3.60;;;;;;;14.47;66.39;97330.41;4916723;29;20038;-81
2021/09/13 04:54:07;;;;;;;3.88;3.20;;;;;;;14.53;66.09;97333.78;4934404;29;20090;-81
2021/09/13 04:56:32;;;;;;;4.20;3.80;;;;;;;14.55;66.04;97342.97;4933524;29;20055;-81
2021/09/13 04:58:58;;;;;;;3.33;3.03;;;;;;;14.57;66.11;97340.88;4932757;29;20031;-81
2021/09/13 05:01:23;;;;;;;3.72;3.22;;;;;;;14.60;65.63;97339.59;4931660;29;20043;-81
2021/09/13 05:03:49;;;;;;;4.68;3.50;;;;;;;14.65;65.71;97350.06;4916170;29;20223;-81
2021/09/13 05:06:14;;;;;;;3.88;3.20;;;;;;;14.73;65.28;97354.75;4947648;29;20083;-81
2021/09/13 05:08:40;;;;;;;3.60;2.97;;;;;;;14.68;65.89;97346.88;4916145;29;20118;-81
2021/09/13 05:11:05;;;;;;;3.40;3.10;;;;;;;14.65;66.12;97344.81;4931797;29;20525;-81
2021/09/13 05:13:30;;;;;;;4.60;3.78;;;;;;;14.65;66.50;97344.81;4946972;28;20034;-81
2021/09/13 05:15:56;;;;;;;3.45;3.05;;;;;;;14.70;66.71;97344.81;4931703;29;20559;-81
2021/09/13 05:18:21;;;;;;;5.13;3.72;;;;;;;14.75;66.78;97342.19;4931866;29;20038;-81
2021/09/13 05:20:47;;;;;;;5.30;3.80;;;;;;;14.79;66.95;97347.66;4947815;29;20035;-81
2021/09/13 05:23:12;;;;;;;4.50;3.72;;;;;;;14.85;66.92;97349.19;4915491;29;20097;-81
2021/09/13 05:25:37;;;;;;;5.05;3.72;;;;;;;14.92;66.93;97356.78;4947733;29;20032;-81
2021/09/13 05:28:03;;;;;;;5.35;4.25;;;;;;;14.93;66.62;97364.38;4947982;29;20155;-81
2021/09/13 05:30:28;;;;;;;7.43;3.85;;;;;;;14.97;66.77;97362.00;4931015;29;20040;-81
2021/09/13 05:32:54;;;;;;;4.32;3.90;;;;;;;15.01;67.07;97365.69;4931259;29;20032;-81
2021/09/13 05:35:19;;;;;;;5.80;4.03;;;;;;;15.04;67.34;97359.88;4948489;29;20039;-81
2021/09/13 05:37:45;;;;;;;3.67;3.30;;;;;;;15.08;67.02;97360.13;4948363;29;20047;-81
2021/09/13 05:40:11;;;;;;;4.15;3.67;;;;;;;15.05;66.89;97368.56;4916831;29;20108;-81
2021/09/13 05:42:36;;;;;;;4.53;3.63;;;;;;;15.08;67.06;97368.81;4948184;29;20483;-81
2021/09/13 05:45:03;;;;;;;4.30;3.58;;;;;;;15.17;66.69;97369.81;4932222;29;20500;-81
2021/09/13 05:47:29;;;;;;;7.30;4.22;;;;;;;15.26;67.02;97377.88;4932318;29;20525;-80
2021/09/13 05:49:54;;;;;;;5.90;3.92;;;;;;;15.37;66.95;97368.16;4948326;29;20059;-80
2021/09/13 05:52:20;;;;;;;4.80;3.78;;;;;;;15.46;67.01;97371.75;4931703;29;20063;-81
2021/09/13 05:54:45;;;;;;;4.20;3.67;;;;;;;15.42;66.30;97373.38;4916552;29;20032;-81
2021/09/13 05:57:10;;;;;;;4.03;3.35;;;;;;;15.48;66.09;97374.91;4932228;29;20067;-81
2021/09/13 05:59:36;;;;;;;5.75;3.40;;;;;;;15.54;66.04;97373.81;4932117;29;20047;-81
2021/09/13 06:02:02;;;;;;;4.78;3.47;;;;;;;15.59;66.21;97382.72;4947413;28;20028;-81
2021/09/13 06:04:32;;;;;;;4.82;4.28;;;;;;;15.59;66.45;97383.50;4931812;29;20055;-81
2021/09/13 06:07:01;;;;;;;6.40;3.55;;;;;;;15.65;66.21;97387.66;4931628;29;20036;-81
2021/09/13 06:09:27;;;;;;;3.80;3.15;;;;;;;15.76;65.85;97393.66;4931705;29;20488;-81
2021/09/13 06:11:52;;;;;;;4.45;3.47;;;;;;;15.76;65.93;97383.16;4915538;29;20024;-81
2021/09/13 06:14:17;;;;;;;3.70;3.05;;;;;;;15.82;65.89;97387.34;4947981;29;20032;-81
2021/09/13 06:16:44;;;;;;;4.32;3.33;;;;;;;15.87;65.84;97392.56;4948110;29;20028;-81
2021/09/13 06:19:10;;;;;;;5.80;3.35;;;;;;;15.91;65.88;97395.41;4947775;29;20032;-81
2021/09/13 06:21:38;;;;;;;4.03;3.25;;;;;;;15.82;65.98;97394.44;4915514;29;20539;-81
2021/09/13 06:24:04;;;;;;;3.85;3.35;;;;;;;15.90;65.84;97394.63;4947942;29;20035;-80
2021/09/13 06:26:29;;;;;;;5.63;3.20;;;;;;;15.85;66.18;97399.94;4946395;28;20118;-80
2021/09/13 06:28:54;;;;;;;4.55;3.70;;;;;;;15.80;66.43;97389.47;4916296;29;20039;-80
2021/09/13 06:31:20;;;;;;;4.35;3.67;;;;;;;15.85;66.40;97394.69;4915292;29;20110;-80
2021/09/13 06:33:45;;;;;;;3.90;3.20;;;;;;;15.99;66.27;97399.28;4947488;29;20539;-80
2021/09/13 06:36:11;;;;;;;4.55;3.50;;;;;;;16.17;66.07;97408.38;4947566;29;20031;-80
2021/09/13 06:38:36;;;;;;;5.43;3.65;;;;;;;16.29;66.11;97406.94;4947335;29;20336;-80
2021/09/13 06:41:02;;;;;;;4.57;4.07;;;;;;;16.43;66.11;97403.69;4915727;29;20030;-80
2021/09/13 06:43:29;;;;;;;5.32;3.88;;;;;;;16.47;65.66;97404.72;4930613;29;20474;-80
2021/09/13 06:46:11;;;;;;;6.07;4.25;;;;;;;16.58;65.55;97402.75;5085158;27;1989481;-81
2021/09/13 06:48:38;;;;;;;5.35;3.53;;;;;;;16.61;65.32;97399.59;5110317;28;20031;-81
2021/09/13 06:51:05;;;;;;;4.07;3.63;;;;;;;16.70;65.32;97399.75;5091829;28;20035;-81
2021/09/13 06:53:31;;;;;;;3.97;3.47;;;;;;;16.80;65.03;97391.78;5091500;28;20027;-81
2021/09/13 06:55:57;;;;;;;3.53;3.22;;;;;;;16.81;64.67;97394.13;5108876;28;20406;-82
2021/09/13 06:58:23;;;;;;;5.53;3.88;;;;;;;16.95;64.57;97396.91;5126008;28;20027;-81
2021/09/13 07:00:48;;;;;;;4.22;3.83;;;;;;;17.12;64.02;97398.28;5108212;28;20032;-81
2021/09/13 07:03:19;;;;;;;5.65;4.10;;;;;;;17.20;63.71;97395.84;5108184;28;20038;-80
2021/09/13 07:05:45;;;;;;;3.65;3.33;;;;;;;17.50;63.12;97398.38;5108805;28;20036;-79
2021/09/13 07:08:11;;;;;;;5.25;3.70;;;;;;;17.66;62.89;97404.19;5108747;28;20107;-79
2021/09/13 07:10:36;;;;;;;5.93;3.40;;;;;;;17.83;62.47;97401.06;5125385;28;20518;-79
2021/09/13 07:13:02;;;;;;;4.57;3.20;;;;;;;18.05;61.86;97406.56;5090877;28;20027;-79
2021/09/13 07:15:27;;;;;;;4.35;2.88;;;;;;;18.21;61.39;97401.06;5108629;28;20041;-79
2021/09/13 07:17:53;;;;;;;4.55;2.85;;;;;;;18.30;60.84;97400.13;5108380;28;20427;-79
2021/09/13 07:20:19;;;;;;;3.63;2.80;;;;;;;18.46;60.22;97410.41;5091259;28;20555;-79
2021/09/13 07:22:44;;;;;;;3.67;2.53;;;;;;;18.82;59.69;97407.94;5108177;28;20028;-79
2021/09/13 07:25:10;;;;;;;3.85;2.92;;;;;;;19.04;59.54;97417.06;5108453;28;20126;-79
2021/09/13 07:27:36;;;;;;;3.70;2.50;;;;;;;19.33;58.69;97414.13;5108226;28;20031;-79
2021/09/13 07:30:03;;;;;;;3.95;2.80;;;;;;;19.51;57.93;97422.19;5091119;28;20030;-79
2021/09/13 07:32:29;;;;;;;4.25;2.50;;;;;;;19.73;57.46;97422.25;5107987;28;20106;-79
2021/09/13 07:34:54;;;;;;;2.95;2.65;;;;;;;19.81;56.63;97420.81;5125283;28;20146;-79
2021/09/13 07:37:20;;;;;;;4.30;2.60;;;;;;;19.90;56.20;97419.00;5091665;28;20050;-79
2021/09/13 07:39:45;;;;;;;2.90;2.58;;;;;;;19.99;56.69;97421.72;5108307;28;20042;-79
2021/09/13 07:42:11;;;;;;;3.25;2.88;;;;;;;20.05;55.78;97427.66;5124755;28;20023;-79
2021/09/13 07:44:36;;;;;;;3.78;2.50;;;;;;;20.07;55.62;97422.88;5107447;28;20034;-79
2021/09/13 07:47:02;;;;;;;3.50;2.85;;;;;;;20.24;55.28;97425.63;5107851;28;20035;-79
2021/09/13 07:49:28;;;;;;;3.17;2.80;;;;;;;20.42;55.22;97431.81;5091049;28;20032;-79
2021/09/13 07:51:54;;;;;;;2.65;2.38;;;;;;;20.61;54.59;97431.59;5107266;28;20254;-79
2021/09/13 07:54:19;;;;;;;3.03;2.40;;;;;;;20.87;54.15;97426.47;5091334;28;20057;-79
2021/09/13 07:56:45;;;;;;;2.45;2.25;;;;;;;21.01;53.56;97431.66;5081072;28;20096;-80
2021/09/13 07:59:11;;;;;;;3.17;2.15;;;;;;;21.45;52.44;97419.31;5112501;27;20546;-81
2021/09/13 08:01:37;;;;;;;2.50;2.30;;;;;;;21.60;52.05;97427.94;5093791;28;20035;-80
2021/09/13 08:04:02;;;;;;;2.85;2.63;;;;;;;21.57;51.63;97428.56;5093949;28;20024;-79
2021/09/13 08:06:28;;;;;;;3.00;2.65;;;;;;;21.38;51.78;97432.22;5093988;28;20028;-79
2021/09/13 08:08:53;;;;;;;3.70;2.40;;;;;;;21.54;51.74;97437.94;5093900;28;20398;-79
2021/09/13 08:11:19;;;;;;;2.95;2.10;;;;;;;21.66;51.09;97434.63;5093528;28;20085;-79
2021/09/13 08:13:44;;;;;;;4.53;2.47;;;;;;;21.85;50.96;97439.69;5093900;28;20549;-79
2021/09/13 08:16:11;;;;;;;2.30;2.10;;;;;;;21.91;50.61;97443.72;5110736;28;20046;-79
2021/09/13 08:18:37;;;;;;;2.75;2.20;;;;;;;21.70;50.92;97441.66;5076964;28;20038;-79
2021/09/13 08:21:07;;;;;;;4.00;2.58;;;;;;;21.78;50.30;97442.78;5093174;28;20038;-79
2021/09/13 08:23:34;;;;;;;2.70;2.35;;;;;;;21.99;50.56;97448.25;5093983;28;20085;-79
2021/09/13 08:26:01;;;;;;;4.15;2.10;;;;;;;22.24;50.20;97453.84;5094024;28;20024;-79
2021/09/13 08:28:27;;;;;;;4.60;2.22;;;;;;;22.40;49.54;97446.22;5076613;28;20505;-80
2021/09/13 08:30:52;;;;;;;4.55;2.42;;;;;;;22.36;49.10;97445.28;5110685;28;20059;-79
2021/09/13 08:33:18;;;;;;;3.00;2.63;;;;;;;22.55;48.98;97452.88;5093104;28;20082;-79
2021/09/13 08:35:46;;;;;;;2.90;2.45;;;;;;;22.58;48.39;97458.34;5093652;28;20069;-80
2021/09/13 08:38:11;;;;;;;2.35;2.15;;;;;;;22.51;48.46;97457.28;5093652;28;20045;-79
2021/09/13 08:40:37;;;;;;;2.50;2.30;;;;;;;23.05;48.08;97467.41;5110251;28;20035;-80
2021/09/13 08:43:03;;;;;;;2.75;1.83;;;;;;;22.94;48.10;97474.97;5109705;28;20027;-79
2021/09/13 08:45:44;;;;;;;3.40;2.38;;;;;;;23.15;48.58;97477.72;5110143;28;20054;-80
2021/09/13 08:53:23;;;;;;;2.10;1.90;;;;;;;23.09;47.39;97463.84;5092709;28;20032;-79
2021/09/13 08:55:52;;;;;;;2.78;2.50;;;;;;;23.42;46.27;97467.75;5093822;28;20016;-80
2021/09/13 08:58:24;;;;;;;3.28;2.70;;;;;;;23.36;46.83;97469.81;5093697;28;20035;-80
2021/09/13 09:00:51;;;;;;;3.25;2.63;;;;;;;23.57;46.05;97475.19;5093706;28;20451;-80
2021/09/13 09:03:17;;;;;;;3.75;2.45;;;;;;;23.83;46.02;97471.59;5092470;28;20059;-80
2021/09/13 09:05:45;;;;;;;2.80;2.05;;;;;;;23.95;46.04;97471.66;5109727;28;20066;-79
2021/09/13 09:08:24;;;;;;;2.53;2.33;;;;;;;24.00;46.56;97466.16;5109096;28;20567;-80
2021/09/13 09:10:55;;;;;;;3.20;2.25;;;;;;;24.44;45.63;97463.91;5092916;28;20062;-79
2021/09/13 09:13:22;;;;;;;3.22;2.10;;;;;;;24.25;44.90;97466.28;5093292;28;20485;-80
2021/09/13 09:15:57;;;;;;;2.50;2.10;;;;;;;24.19;44.81;97467.56;5092847;28;20046;-80
2021/09/13 09:18:23;;;;;;;;;;;;;;;24.16;44.95;97466.31;5093125;28;20031;-80
2021/09/13 09:20:48;;;;;;;3.88;3.00;;;;;;;24.35;44.38;97465.88;5092695;28;20390;-80
2021/09/13 09:23:14;;;;;;;2.30;2.05;;;;;;;24.55;44.83;97463.50;5109547;28;20054;-79
2021/09/13 09:25:40;;;;;;;2.08;1.95;;;;;;;24.73;44.03;97459.56;5109472;28;20559;-79
2021/09/13 09:28:11;;;;;;;2.30;2.10;;;;;;;24.64;44.05;97461.53;5092255;28;20474;-80
2021/09/13 09:30:45;;;;;;;2.60;2.40;;;;;;;24.59;44.09;97456.41;5093244;28;20031;-79
2021/09/13 09:33:18;;;;;;;3.50;3.17;;;;;;;24.73;42.85;97458.78;5075377;28;20035;-80
2021/09/13 09:35:51;;;;;;;2.40;1.67;;;;;;;24.64;44.09;97450.88;5075943;28;20549;-80
2021/09/13 09:38:26;;;;;;;2.67;1.92;;;;;;;24.98;44.07;97451.59;5109425;28;20028;-80
2021/09/13 09:40:59;;;;;;;2.10;1.90;;;;;;;25.17;43.21;97448.38;5092340;28;20419;-80
2021/09/13 09:43:25;;;;;;;2.28;1.80;;;;;;;25.27;42.39;97449.88;5092950;28;20035;-80
2021/09/13 09:45:51;;;;;;;2.90;1.95;;;;;;;25.11;42.19;97447.84;5075397;28;20386;-81
2021/09/13 09:48:17;;;;;;;2.30;2.10;;;;;;;25.19;42.38;97444.28;5092310;28;20032;-80
2021/09/13 09:50:42;;;;;;;2.67;2.03;;;;;;;25.63;41.85;97442.94;5074833;28;20073;-80
2021/09/13 09:53:14;;;;;;;1.80;1.70;;;;;;;25.23;42.04;97439.06;5091864;28;20038;-80
2021/09/13 09:55:43;;;;;;;2.13;1.92;;;;;;;25.41;41.28;97445.75;5108964;28;20145;-80
2021/09/13 09:58:11;;;;;;;2.80;2.15;;;;;;;25.61;41.57;97441.38;5108634;28;20118;-80
2021/09/13 10:00:38;;;;;;;2.55;1.63;;;;;;;25.57;41.71;97440.50;5092016;28;20037;-80
2021/09/13 10:03:05;;;;;;;1.95;1.70;;;;;;;26.02;41.65;97433.41;5091529;28;20035;-79
2021/09/13 10:05:31;;;;;;;1.90;1.60;;;;;;;25.93;40.82;97432.75;5074822;28;20122;-80
2021/09/13 10:07:57;;;;;;;3.05;1.75;;;;;;;25.82;40.43;97431.66;5108563;28;20036;-80
2021/09/13 10:10:29;;;;;;;1.85;1.40;;;;;;;26.21;40.32;97430.09;5108844;28;20557;-80
2021/09/13 10:12:56;;;;;;;2.78;2.03;;;;;;;26.11;39.79;97427.91;5091444;28;20126;-80
2021/09/13 10:15:21;;;;;;;1.95;1.85;;;;;;;26.08;41.15;97421.38;5091811;28;20055;-80
2021/09/13 10:17:47;;;;;;;2.10;1.90;;;;;;;26.16;40.78;97425.00;5091701;28;20066;-80
2021/09/13 10:20:13;;;;;;;2.20;1.92;;;;;;;26.18;40.37;97422.75;5108397;28;20364;-79
2021/09/13 10:22:44;;;;;;;2.60;1.90;;;;;;;25.86;41.19;97417.31;5075150;28;20038;-79
2021/09/13 10:25:11;;;;;;;2.22;1.90;;;;;;;25.97;40.62;97418.41;5091208;28;20081;-79
2021/09/13 10:27:46;;;;;;;1.92;1.80;;;;;;;26.20;41.07;97414.41;5091743;28;20024;-79
2021/09/13 10:30:24;;;;;;;2.35;2.00;;;;;;;25.81;40.72;97417.56;5075139;28;20023;-79
2021/09/13 10:32:52;;;;;;;2.45;2.25;;;;;;;25.86;40.64;97413.84;5091197;28;20024;-79
2021/09/13 10:35:19;;;;;;;2.10;2.00;;;;;;;25.90;41.63;97412.84;5092193;28;20486;-80
2021/09/13 10:37:48;;;;;;;2.22;2.08;;;;;;;26.15;41.53;97410.91;5108083;28;20027;-80
2021/09/13 10:40:21;;;;;;;2.45;1.98;;;;;;;26.66;40.36;97404.94;5091504;28;20039;-79
2021/09/13 10:42:48;;;;;;;2.22;2.03;;;;;;;26.81;39.72;97408.75;5074494;28;20024;-80
2021/09/13 10:45:38;;;;;;;2.25;1.60;;;;;;;26.96;40.10;97412.53;5109549;28;20047;-80
2021/09/13 10:48:06;;;;;;;2.38;2.17;;;;;;;27.05;38.81;97393.66;5091238;28;20203;-80
2021/09/13 10:50:58;;;;;;;2.53;1.77;;;;;;;27.07;37.99;97413.53;5107955;28;20034;-80
2021/09/13 10:53:29;;;;;;;2.25;2.08;;;;;;;27.63;38.16;97401.03;5086732;28;20134;-79
2021/09/13 10:56:02;;;;;;;2.35;1.98;;;;;;;27.31;37.59;97395.78;5091207;28;20035;-80
2021/09/13 10:58:33;;;;;;;2.97;2.72;;;;;;;27.39;38.64;97392.13;5091349;28;20126;-80
2021/09/13 11:01:08;;;;;;;2.22;2.03;;;;;;;27.32;38.67;97393.88;5108941;28;20053;-80
2021/09/13 11:03:36;;;;;;;2.03;1.83;;;;;;;27.57;37.67;97386.38;5074740;28;20039;-79
2021/09/13 11:06:03;;;;;;;2.08;1.90;;;;;;;28.07;38.53;97381.25;5091017;28;20032;-80
2021/09/13 11:08:29;;;;;;;3.05;1.90;;;;;;;27.83;37.98;97378.50;5108243;28;20045;-80
2021/09/13 11:10:54;;;;;;;3.15;1.90;;;;;;;27.92;38.07;97372.19;5090539;28;20478;-79
2021/09/13 11:13:20;;;;;;;3.55;2.72;;;;;;;28.04;38.36;97371.28;5074781;28;20031;-79
2021/09/13 11:15:52;;;;;;;3.00;2.03;;;;;;;28.32;37.48;97376.34;5107909;28;20028;-80
2021/09/13 11:18:41;;;;;;;2.10;1.75;;;;;;;27.86;37.24;97373.56;5107941;28;20114;-80
2021/09/13 11:21:22;;;;;;;2.70;2.10;;;;;;;27.77;37.16;97374.56;5074401;28;20036;-80
2021/09/13 11:24:02;;;;;;;1.63;1.50;;;;;;;28.28;36.90;97368.25;5090405;28;20024;-80
2021/09/13 11:26:36;;;;;;;2.40;2.20;;;;;;;28.78;36.24;97371.00;5107790;28;20023;-79
2021/09/13 11:29:30;;;;;;;2.45;2.00;;;;;;;28.66;37.77;97369.28;5107671;28;20113;-80
2021/09/13 11:31:56;;;;;;;2.47;2.27;;;;;;;28.71;37.14;97365.53;5110027;28;20027;-79
2021/09/13 11:34:25;;;;;;;2.15;2.00;;;;;;;28.93;36.05;97363.94;5094501;28;20429;-79
2021/09/13 11:37:06;;;;;;;2.03;1.80;;;;;;;28.39;37.11;97360.41;5094934;28;20073;-79
2021/09/13 11:39:45;;;;;;;2.22;1.85;;;;;;;28.59;36.95;97353.09;5111849;28;20080;-79